Time;durP1;ratioP1;P1;durP2;ratioP2;P2;SDS_P1;SDS_P2;PMS_P1;PMS_P2;Temp;Humidity;BMP_temperature;BMP_pressure;BME280_temperature;BME280_humidity;BME280_pressure;Samples;Min_cycle;Max_cycle;Signal;HPM_P1;HPM_P2
2022/02/26 00:01:36;;;;;;;4.20;1.40;;;21.80;93.80;;;;;;5054932;28;20238;-73
2022/02/26 00:04:04;;;;;;;5.27;1.43;;;21.70;92.90;;;;;;5053085;28;20553;-81
2022/02/26 00:06:31;;;;;;;5.87;2.10;;;21.80;93.30;;;;;;5055376;28;20268;-76
2022/02/26 00:08:59;;;;;;;6.57;1.67;;;21.60;92.90;;;;;;5059355;28;20188;-77
2022/02/26 00:11:26;;;;;;;9.83;3.20;;;21.50;93.00;;;;;;5055424;28;20219;-78
2022/02/26 00:13:54;;;;;;;17.23;4.07;;;21.40;93.20;;;;;;5052363;28;20650;-83
2022/02/26 00:16:21;;;;;;;16.63;3.33;;;21.40;93.40;;;;;;5054138;28;20172;-76
2022/02/26 00:18:48;;;;;;;8.33;1.90;;;21.30;93.60;;;;;;5053305;28;20188;-81
2022/02/26 00:21:16;;;;;;;12.87;2.20;;;21.30;93.60;;;;;;5054184;28;20229;-79
2022/02/26 00:23:46;;;;;;;14.00;2.60;;;21.20;94.00;;;;;;5054005;28;20292;-76
2022/02/26 00:26:13;;;;;;;8.77;2.00;;;21.30;94.10;;;;;;5053409;28;20180;-82
2022/02/26 00:28:40;;;;;;;15.03;4.93;;;21.20;93.40;;;;;;5053693;28;20199;-80
2022/02/26 00:31:08;;;;;;;11.50;4.73;;;21.30;93.80;;;;;;5054333;28;20183;-82
2022/02/26 00:33:35;;;;;;;12.30;3.83;;;21.30;93.90;;;;;;5053832;28;20294;-76
2022/02/26 00:36:02;;;;;;;9.40;2.60;;;21.30;93.60;;;;;;5046550;28;20180;-78
2022/02/26 00:38:30;;;;;;;9.20;2.00;;;21.30;93.50;;;;;;5054315;28;20269;-75
2022/02/26 00:41:00;;;;;;;10.37;2.27;;;21.40;93.80;;;;;;5053891;28;20271;-77
2022/02/26 00:43:27;;;;;;;14.17;1.90;;;21.50;93.50;;;;;;5054140;28;20389;-77
2022/02/26 00:45:54;;;;;;;12.17;2.60;;;21.70;93.80;;;;;;5053759;28;20204;-79
2022/02/26 00:51:09;;;;;;;14.20;4.60;;;21.80;93.70;;;;;;5029840;28;20207;-80
2022/02/26 00:53:37;;;;;;;9.47;4.23;;;21.80;93.10;;;;;;5049504;28;20187;-76
2022/02/26 00:56:04;;;;;;;10.93;2.63;;;21.80;93.20;;;;;;5054053;28;20242;-79
2022/02/26 00:58:32;;;;;;;11.80;2.10;;;21.80;93.50;;;;;;5052635;28;20196;-75
2022/02/26 01:00:59;;;;;;;8.53;3.40;;;21.80;93.20;;;;;;5053677;28;20196;-81
2022/02/26 01:03:26;;;;;;;9.53;3.57;;;21.90;93.40;;;;;;5053647;28;20521;-73
2022/02/26 01:05:54;;;;;;;12.43;4.10;;;21.90;93.40;;;;;;5053205;28;20196;-79
2022/02/26 01:08:21;;;;;;;9.90;4.63;;;22.00;93.50;;;;;;5053626;28;20617;-75
2022/02/26 01:10:48;;;;;;;10.07;2.40;;;21.90;92.90;;;;;;5053442;28;20208;-80
2022/02/26 01:13:16;;;;;;;5.57;2.00;;;21.80;92.80;;;;;;5053349;28;20595;-79
2022/02/26 01:15:43;;;;;;;7.93;1.93;;;21.70;92.90;;;;;;5053549;28;20229;-77
2022/02/26 01:18:11;;;;;;;10.93;3.63;;;21.70;93.40;;;;;;5053653;28;20198;-78
2022/02/26 01:20:38;;;;;;;7.67;2.80;;;21.60;93.20;;;;;;5053277;28;20221;-75
2022/02/26 01:23:05;;;;;;;8.87;3.80;;;21.70;93.50;;;;;;5053258;28;20222;-75
2022/02/26 01:25:33;;;;;;;11.50;2.30;;;21.80;93.80;;;;;;5053335;28;20195;-74
2022/02/26 01:28:00;;;;;;;5.47;2.00;;;21.90;94.10;;;;;;5047441;28;20192;-75
2022/02/26 01:30:28;;;;;;;9.67;2.73;;;21.90;93.80;;;;;;5053166;28;20188;-77
2022/02/26 01:32:55;;;;;;;12.03;3.90;;;22.00;93.50;;;;;;5053018;28;20228;-79
2022/02/26 01:35:23;;;;;;;19.07;7.23;;;22.00;92.90;;;;;;5053092;28;20184;-77
2022/02/26 01:37:50;;;;;;;14.87;5.17;;;22.20;93.50;;;;;;5053024;28;20626;-79
2022/02/26 01:40:18;;;;;;;9.60;3.27;;;22.30;93.60;;;;;;5052973;28;20244;-77
2022/02/26 01:42:45;;;;;;;12.27;3.33;;;22.30;92.80;;;;;;5052702;28;20229;-78
2022/02/26 01:45:15;;;;;;;13.80;6.57;;;22.30;93.00;;;;;;5052733;28;20666;-78
2022/02/26 01:47:43;;;;;;;14.83;6.20;;;22.10;92.40;;;;;;5052605;28;20227;-76
2022/02/26 01:50:14;;;;;;;12.70;5.87;;;22.10;93.10;;;;;;5052922;28;20321;-72
2022/02/26 01:52:44;;;;;;;15.77;3.90;;;22.00;92.80;;;;;;5052298;28;20234;-75
2022/02/26 01:55:12;;;;;;;9.63;2.10;;;22.00;93.20;;;;;;5052399;28;20215;-72
2022/02/26 01:57:40;;;;;;;7.70;2.30;;;21.90;92.80;;;;;;5052558;28;20191;-73
2022/02/26 02:00:10;;;;;;;6.60;1.70;;;21.90;93.20;;;;;;5051886;28;20195;-75
2022/02/26 02:02:37;;;;;;;10.53;5.30;;;21.80;93.40;;;;;;5052639;28;20634;-72
2022/02/26 02:05:05;;;;;;;8.90;2.97;;;21.80;93.70;;;;;;5048551;28;20233;-73
2022/02/26 02:07:32;;;;;;;10.13;4.30;;;21.70;93.70;;;;;;5052548;28;20195;-73
2022/02/26 02:10:00;;;;;;;9.77;2.70;;;21.60;94.10;;;;;;5052537;28;20705;-72
2022/02/26 02:12:28;;;;;;;8.00;3.00;;;21.50;94.80;;;;;;5048700;28;20273;-72
2022/02/26 02:14:55;;;;;;;14.37;6.57;;;21.50;94.90;;;;;;5052234;28;20195;-73
2022/02/26 02:17:23;;;;;;;12.93;5.40;;;21.50;94.80;;;;;;5052362;28;20184;-74
2022/02/26 02:19:51;;;;;;;15.87;6.53;;;21.60;95.30;;;;;;5052393;28;20188;-72
2022/02/26 02:22:20;;;;;;;23.43;15.23;;;21.50;95.00;;;;;;5052100;28;20194;-74
2022/02/26 02:24:48;;;;;;;23.93;13.03;;;21.50;94.90;;;;;;5052696;28;20248;-73
2022/02/26 02:27:18;;;;;;;17.33;6.20;;;21.50;94.80;;;;;;5048314;28;20281;-76
2022/02/26 02:29:46;;;;;;;16.80;5.13;;;21.40;94.70;;;;;;5052455;28;20231;-75
2022/02/26 02:32:13;;;;;;;12.63;3.23;;;21.50;94.80;;;;;;5052075;28;20215;-71
2022/02/26 02:34:41;;;;;;;13.77;3.90;;;21.40;94.50;;;;;;5051693;28;20263;-71
2022/02/26 02:37:10;;;;;;;6.97;2.63;;;21.30;94.70;;;;;;5052114;28;20267;-76
2022/02/26 02:39:39;;;;;;;12.67;2.90;;;21.40;94.80;;;;;;5053643;28;20652;-74
2022/02/26 02:42:06;;;;;;;8.57;3.13;;;21.40;94.90;;;;;;5053310;28;20204;-73
2022/02/26 02:44:34;;;;;;;12.20;3.40;;;21.40;95.10;;;;;;5050714;28;20187;-73
2022/02/26 02:47:02;;;;;;;13.10;3.20;;;21.50;95.20;;;;;;5051490;28;20311;-74
2022/02/26 02:49:29;;;;;;;12.17;3.17;;;21.50;95.20;;;;;;5052331;28;20191;-72
2022/02/26 02:51:56;;;;;;;14.03;3.13;;;21.50;95.20;;;;;;5051719;28;20226;-72
2022/02/26 02:54:24;;;;;;;11.97;3.23;;;21.60;95.30;;;;;;5050836;28;20548;-72
2022/02/26 02:56:51;;;;;;;11.33;3.77;;;21.60;95.30;;;;;;5050628;28;20184;-72
2022/02/26 02:59:18;;;;;;;8.70;3.33;;;21.60;95.20;;;;;;5050670;28;20180;-74
2022/02/26 03:01:46;;;;;;;9.47;3.20;;;21.60;95.40;;;;;;5050854;28;20265;-73
2022/02/26 03:04:13;;;;;;;12.40;3.60;;;21.70;95.40;;;;;;5049093;28;20646;-76
2022/02/26 03:06:40;;;;;;;12.43;3.13;;;21.70;95.30;;;;;;5048375;28;20266;-72
2022/02/26 03:09:08;;;;;;;12.07;2.83;;;21.80;95.60;;;;;;5051658;28;20191;-73
2022/02/26 03:11:35;;;;;;;9.10;2.90;;;22.00;95.50;;;;;;5054756;28;20285;-72
2022/02/26 03:14:02;;;;;;;10.87;2.60;;;22.20;95.40;;;;;;5055516;28;20282;-72
2022/02/26 03:16:30;;;;;;;9.03;2.47;;;22.30;95.00;;;;;;5055873;28;20309;-71
2022/02/26 03:18:57;;;;;;;8.00;2.90;;;22.30;94.50;;;;;;5054156;28;20180;-72
2022/02/26 03:21:24;;;;;;;9.57;2.80;;;22.40;94.40;;;;;;5055525;28;20188;-73
2022/02/26 03:23:54;;;;;;;11.40;2.87;;;22.40;94.40;;;;;;5055468;28;20218;-71
2022/02/26 03:26:22;;;;;;;8.23;2.37;;;22.40;94.00;;;;;;5055690;28;20634;-74
2022/02/26 03:28:49;;;;;;;9.40;4.43;;;22.40;93.90;;;;;;5047991;28;20219;-72
2022/02/26 03:31:16;;;;;;;9.13;5.90;;;22.20;93.50;;;;;;5054233;28;20241;-72
2022/02/26 03:33:45;;;;;;;5.07;1.87;;;21.90;93.90;;;;;;5054942;28;20710;-73
2022/02/26 03:36:12;;;;;;;4.13;1.30;;;21.50;94.20;;;;;;5049840;28;20235;-77
2022/02/26 03:38:42;;;;;;;19.63;16.37;;;21.20;94.30;;;;;;5054997;28;20206;-75
2022/02/26 03:41:13;;;;;;;4.43;1.83;;;21.10;95.00;;;;;;5053672;28;20310;-79
2022/02/26 03:43:42;;;;;;;5.00;2.00;;;21.00;94.80;;;;;;5054510;28;20187;-76
2022/02/26 03:46:09;;;;;;;6.23;1.80;;;21.00;94.90;;;;;;5054536;28;20273;-75
2022/02/26 03:48:37;;;;;;;4.40;1.70;;;21.00;95.40;;;;;;5053759;28;20194;-80
2022/02/26 03:51:05;;;;;;;5.70;1.90;;;21.00;95.30;;;;;;5050755;28;20192;-74
2022/02/26 03:53:36;;;;;;;8.30;2.37;;;21.00;95.50;;;;;;5054663;28;20609;-74
2022/02/26 03:56:04;;;;;;;8.93;1.93;;;21.00;95.50;;;;;;5053918;28;20634;-72
2022/02/26 03:58:31;;;;;;;8.63;1.87;;;21.10;95.50;;;;;;5054482;28;20596;-73
2022/02/26 04:00:58;;;;;;;10.33;2.30;;;21.30;95.50;;;;;;5053401;28;20618;-73
2022/02/26 04:03:26;;;;;;;9.33;2.20;;;21.40;95.40;;;;;;5054230;28;20172;-78
2022/02/26 04:05:53;;;;;;;10.63;2.03;;;21.50;95.40;;;;;;5054000;28;20180;-72
2022/02/26 04:08:21;;;;;;;8.63;1.47;;;21.30;94.60;;;;;;5053913;28;20175;-73
2022/02/26 04:10:48;;;;;;;9.50;2.00;;;21.10;94.30;;;;;;5053476;28;20234;-74
2022/02/26 04:13:15;;;;;;;14.07;9.37;;;21.20;94.70;;;;;;5053266;28;20257;-72
2022/02/26 04:15:43;;;;;;;14.97;6.13;;;21.20;94.40;;;;;;5052756;28;20199;-77
2022/02/26 04:18:10;;;;;;;8.93;2.37;;;21.20;94.30;;;;;;5053929;28;20176;-72
2022/02/26 04:20:37;;;;;;;9.47;1.90;;;21.20;94.50;;;;;;5051623;28;20195;-74
2022/02/26 04:23:05;;;;;;;8.20;1.60;;;21.20;94.10;;;;;;5048682;28;20176;-78
2022/02/26 04:25:32;;;;;;;9.00;2.00;;;21.10;94.10;;;;;;5052847;28;20176;-77
2022/02/26 04:28:00;;;;;;;15.20;1.90;;;21.10;94.00;;;;;;5052307;28;20539;-78
2022/02/26 04:30:27;;;;;;;9.10;1.73;;;21.20;93.20;;;;;;5053644;28;20207;-77
2022/02/26 04:32:54;;;;;;;6.07;1.53;;;21.20;92.60;;;;;;5054649;28;20577;-80
2022/02/26 04:35:22;;;;;;;7.93;2.30;;;21.30;92.80;;;;;;5054413;28;20572;-80
2022/02/26 04:37:50;;;;;;;7.03;1.90;;;21.40;92.50;;;;;;5053799;28;20250;-79
2022/02/26 04:40:18;;;;;;;8.63;2.03;;;21.30;92.20;;;;;;5053047;28;20182;-80
2022/02/26 04:42:45;;;;;;;10.43;2.03;;;21.40;92.60;;;;;;5046110;28;20723;-79
2022/02/26 04:45:14;;;;;;;6.83;1.93;;;21.40;92.10;;;;;;5061056;28;20184;-81
2022/02/26 04:47:43;;;;;;;7.80;1.87;;;21.40;91.90;;;;;;5058745;28;20311;-80
2022/02/26 04:50:13;;;;;;;7.80;2.03;;;21.50;91.80;;;;;;5053278;28;20184;-78
2022/02/26 04:52:41;;;;;;;10.80;1.83;;;21.60;92.30;;;;;;5052071;28;20245;-77
2022/02/26 04:55:09;;;;;;;13.23;2.27;;;21.60;92.00;;;;;;5053571;28;20180;-78
2022/02/26 04:57:37;;;;;;;6.13;1.57;;;21.60;91.90;;;;;;5053577;28;20653;-80
2022/02/26 05:00:10;;;;;;;10.27;2.30;;;21.60;91.60;;;;;;5068037;28;20192;-78
2022/02/26 05:02:38;;;;;;;7.57;1.63;;;21.60;91.00;;;;;;5052827;28;20210;-78
2022/02/26 05:05:07;;;;;;;5.57;1.43;;;21.50;87.70;;;;;;5047336;28;20176;-79
2022/02/26 05:07:34;;;;;;;7.57;1.43;;;21.50;88.60;;;;;;5052835;28;20267;-78
2022/02/26 05:10:05;;;;;;;6.50;1.40;;;21.60;88.60;;;;;;5047250;28;20241;-80
2022/02/26 05:12:43;;;;;;;8.13;1.43;;;21.60;87.60;;;;;;5056677;28;20630;-80
2022/02/26 05:15:10;;;;;;;8.23;1.63;;;21.50;87.70;;;;;;5054203;28;20180;-81
2022/02/26 05:17:42;;;;;;;8.07;1.23;;;21.60;88.00;;;;;;5055812;28;20202;-78
2022/02/26 05:20:10;;;;;;;6.93;1.87;;;21.50;88.30;;;;;;5049995;28;20187;-77
2022/02/26 05:22:39;;;;;;;7.40;2.13;;;21.50;89.20;;;;;;5053730;28;20266;-81
2022/02/26 05:25:08;;;;;;;10.53;1.50;;;21.50;89.30;;;;;;5053420;28;20176;-84
2022/02/26 05:27:35;;;;;;;4.87;1.37;;;21.60;89.20;;;;;;5051232;28;20215;-87
2022/02/26 05:30:03;;;;;;;4.90;1.60;;;21.60;89.50;;;;;;5051316;28;20206;-77
2022/02/26 05:32:30;;;;;;;9.40;1.43;;;21.60;89.10;;;;;;5051086;28;20227;-79
2022/02/26 05:34:58;;;;;;;7.87;1.50;;;21.70;90.30;;;;;;5051984;28;20220;-77
2022/02/26 05:37:25;;;;;;;13.70;1.70;;;21.70;89.80;;;;;;5050451;28;20176;-77
2022/02/26 05:39:52;;;;;;;5.20;1.43;;;21.70;90.20;;;;;;5052723;28;20186;-76
2022/02/26 05:42:20;;;;;;;5.67;1.20;;;21.80;90.50;;;;;;5052481;28;20180;-77
2022/02/26 05:44:47;;;;;;;3.87;1.10;;;21.80;90.30;;;;;;5052983;28;20207;-76
2022/02/26 05:47:15;;;;;;;5.77;1.40;;;21.80;89.10;;;;;;5051895;28;20239;-77
2022/02/26 05:49:42;;;;;;;7.97;1.53;;;21.90;89.30;;;;;;5052068;28;20183;-79
2022/02/26 05:52:10;;;;;;;8.70;1.63;;;21.80;88.90;;;;;;5051644;28;20573;-77
2022/02/26 05:54:37;;;;;;;7.10;1.90;;;21.80;88.50;;;;;;5052280;28;20705;-77
2022/02/26 05:57:08;;;;;;;11.73;2.03;;;21.90;89.40;;;;;;5051468;28;20184;-77
2022/02/26 05:59:35;;;;;;;7.23;1.80;;;22.00;89.50;;;;;;5052903;28;20270;-77
2022/02/26 06:02:03;;;;;;;10.80;2.30;;;21.90;88.20;;;;;;5048631;28;20180;-77
2022/02/26 06:04:31;;;;;;;11.97;2.03;;;22.00;88.80;;;;;;5051797;28;20198;-77
2022/02/26 06:06:58;;;;;;;6.70;1.80;;;22.00;88.20;;;;;;5052119;28;20215;-77
2022/02/26 06:09:25;;;;;;;8.77;1.83;;;22.00;87.60;;;;;;5052705;28;20267;-77
2022/02/26 06:11:52;;;;;;;9.67;2.13;;;22.00;88.00;;;;;;5051128;28;20196;-78
2022/02/26 06:14:20;;;;;;;9.03;2.40;;;22.10;88.00;;;;;;5052482;28;20285;-78
2022/02/26 06:16:47;;;;;;;10.83;2.07;;;22.20;88.10;;;;;;5052135;28;20172;-79
2022/02/26 06:19:15;;;;;;;6.77;2.00;;;22.20;87.70;;;;;;5051500;28;20215;-78
2022/02/26 06:21:48;;;;;;;8.10;1.77;;;22.20;87.70;;;;;;5051948;28;20196;-83
2022/02/26 06:24:17;;;;;;;8.30;1.27;;;22.20;86.50;;;;;;5051908;28;20180;-80
2022/02/26 06:26:45;;;;;;;11.17;2.07;;;22.10;86.40;;;;;;5051046;28;20183;-80
2022/02/26 06:29:12;;;;;;;5.37;1.27;;;22.00;85.50;;;;;;5052949;28;20183;-83
2022/02/26 06:31:39;;;;;;;5.83;1.93;;;22.00;85.60;;;;;;5050396;28;20212;-79
2022/02/26 06:34:16;;;;;;;5.80;1.30;;;22.00;86.20;;;;;;5051623;28;20673;-84
2022/02/26 06:36:44;;;;;;;6.60;2.03;;;21.90;85.90;;;;;;5050060;28;20182;-85
2022/02/26 06:39:11;;;;;;;8.97;2.03;;;21.90;86.00;;;;;;5051049;28;20195;-82
2022/02/26 06:41:39;;;;;;;8.10;1.90;;;21.90;86.00;;;;;;5051118;28;20183;-79
2022/02/26 06:44:06;;;;;;;7.63;1.47;;;21.90;86.40;;;;;;5051580;28;20184;-83
2022/02/26 06:46:35;;;;;;;5.33;1.60;;;21.80;85.70;;;;;;5047371;28;20247;-82
2022/02/26 06:49:03;;;;;;;7.73;1.77;;;21.80;85.20;;;;;;5051428;28;20180;-83
2022/02/26 06:51:31;;;;;;;6.03;1.67;;;21.80;85.50;;;;;;5050653;28;20188;-81
2022/02/26 06:53:58;;;;;;;12.10;1.93;;;21.90;85.50;;;;;;5050757;28;20263;-82
2022/02/26 06:56:25;;;;;;;6.23;1.83;;;21.90;85.50;;;;;;5051607;28;20190;-83
2022/02/26 06:58:54;;;;;;;9.43;2.53;;;21.90;84.50;;;;;;5051528;28;20180;-83
2022/02/26 07:01:22;;;;;;;9.87;2.77;;;21.90;85.50;;;;;;5051334;28;20533;-81
2022/02/26 07:03:50;;;;;;;9.80;2.10;;;21.90;85.30;;;;;;5051546;28;20187;-82
2022/02/26 07:06:17;;;;;;;9.40;2.30;;;21.90;85.80;;;;;;5051626;28;20175;-82
2022/02/26 07:08:45;;;;;;;14.13;2.00;;;22.00;85.50;;;;;;5050508;28;20179;-81
2022/02/26 07:11:13;;;;;;;8.77;2.23;;;22.00;85.00;;;;;;5046483;28;20187;-82
2022/02/26 07:13:40;;;;;;;9.07;3.43;;;22.00;84.70;;;;;;5051468;28;20546;-82
2022/02/26 07:16:07;;;;;;;8.83;4.13;;;21.90;83.90;;;;;;5050123;28;20187;-81
2022/02/26 07:18:35;;;;;;;10.80;3.90;;;22.00;82.40;;;;;;5043477;28;20208;-81
2022/02/26 07:21:03;;;;;;;10.13;3.47;;;22.00;83.40;;;;;;5050172;28;20202;-81
2022/02/26 07:23:30;;;;;;;13.77;3.13;;;22.00;83.90;;;;;;5048166;28;20183;-81
2022/02/26 07:25:58;;;;;;;8.87;3.13;;;22.00;84.30;;;;;;5051475;28;20186;-81
2022/02/26 07:28:26;;;;;;;11.53;4.63;;;22.10;84.70;;;;;;5050750;28;20176;-80
2022/02/26 07:30:53;;;;;;;8.17;3.50;;;22.00;84.90;;;;;;5050010;28;20585;-81
2022/02/26 07:33:20;;;;;;;17.93;4.60;;;22.00;85.00;;;;;;5046208;28;20238;-80
2022/02/26 07:35:48;;;;;;;6.63;2.63;;;22.00;85.20;;;;;;5050884;28;20322;-80
2022/02/26 07:38:15;;;;;;;11.60;3.13;;;22.00;85.40;;;;;;5050573;28;20631;-80
2022/02/26 07:40:43;;;;;;;9.90;2.53;;;22.00;86.20;;;;;;5049090;28;20176;-80
2022/02/26 07:43:14;;;;;;;12.63;2.93;;;21.90;85.60;;;;;;5050891;28;20212;-80
2022/02/26 07:45:41;;;;;;;7.00;2.83;;;22.00;86.10;;;;;;5051533;28;20225;-80
2022/02/26 07:48:09;;;;;;;8.07;2.40;;;21.90;85.70;;;;;;5051458;28;20188;-80
2022/02/26 07:50:36;;;;;;;7.83;3.03;;;22.00;85.90;;;;;;5049879;28;20271;-80
2022/02/26 07:53:03;;;;;;;9.10;2.30;;;22.00;85.90;;;;;;5050610;28;20747;-79
2022/02/26 07:55:34;;;;;;;6.87;2.67;;;21.90;85.50;;;;;;5050338;28;20184;-79
2022/02/26 07:58:02;;;;;;;8.47;2.30;;;21.90;86.10;;;;;;5053261;28;20188;-80
2022/02/26 08:00:30;;;;;;;8.73;3.03;;;21.80;86.40;;;;;;5055283;28;20661;-79
2022/02/26 08:03:00;;;;;;;6.57;2.13;;;21.80;87.10;;;;;;5055096;28;20199;-81
2022/02/26 08:05:28;;;;;;;7.93;2.97;;;21.80;86.90;;;;;;5054993;28;20238;-80
2022/02/26 08:07:56;;;;;;;8.67;3.17;;;21.80;86.40;;;;;;5054981;28;20261;-79
2022/02/26 08:10:26;;;;;;;15.50;2.93;;;21.80;87.20;;;;;;5054943;28;20180;-80
2022/02/26 08:12:54;;;;;;;9.37;2.80;;;21.70;86.50;;;;;;5054503;28;20778;-79
2022/02/26 08:15:24;;;;;;;7.33;2.70;;;21.80;86.50;;;;;;5054727;28;20184;-80
2022/02/26 08:17:51;;;;;;;11.00;2.90;;;21.70;86.70;;;;;;5053782;28;20188;-79
2022/02/26 08:20:23;;;;;;;10.83;2.40;;;21.70;87.00;;;;;;5054358;28;20241;-80
2022/02/26 08:22:52;;;;;;;9.30;2.43;;;21.70;87.50;;;;;;5053776;28;20273;-80
2022/02/26 08:25:19;;;;;;;11.37;2.30;;;21.70;88.00;;;;;;5054620;28;20272;-80
2022/02/26 08:27:47;;;;;;;10.07;2.50;;;21.60;88.70;;;;;;5052120;28;20188;-78
2022/02/26 08:30:17;;;;;;;6.47;2.50;;;21.50;89.30;;;;;;5054614;28;20183;-80
2022/02/26 08:32:44;;;;;;;10.73;2.63;;;21.40;89.50;;;;;;5053958;28;20234;-79
2022/02/26 08:35:14;;;;;;;7.77;2.60;;;21.40;89.60;;;;;;5054194;28;20171;-80
2022/02/26 08:37:46;;;;;;;10.03;2.37;;;21.30;89.60;;;;;;5054430;28;20262;-80
2022/02/26 08:40:14;;;;;;;6.43;2.30;;;21.30;89.90;;;;;;5054667;28;20186;-80
2022/02/26 08:42:42;;;;;;;11.63;2.47;;;21.30;90.30;;;;;;5054302;28;20634;-80
2022/02/26 08:45:11;;;;;;;8.93;2.33;;;21.20;90.40;;;;;;5054053;28;20225;-78
2022/02/26 08:47:38;;;;;;;6.30;1.90;;;21.20;90.70;;;;;;5053971;28;20247;-78
2022/02/26 08:50:08;;;;;;;6.07;2.43;;;21.20;91.00;;;;;;5046866;28;20662;-78
2022/02/26 08:52:36;;;;;;;6.43;2.70;;;21.10;91.00;;;;;;5052864;28;20216;-78
2022/02/26 08:55:04;;;;;;;10.47;2.77;;;21.10;91.20;;;;;;5051240;28;20176;-77
2022/02/26 08:57:31;;;;;;;5.47;2.37;;;21.10;91.30;;;;;;5051526;28;20215;-77
2022/02/26 08:59:59;;;;;;;7.40;2.33;;;21.10;91.40;;;;;;5053048;28;20208;-77
2022/02/26 09:02:26;;;;;;;8.77;2.57;;;21.10;91.50;;;;;;5053743;28;20262;-76
2022/02/26 09:04:53;;;;;;;6.90;2.93;;;21.10;91.70;;;;;;5053089;28;20666;-76
2022/02/26 09:07:21;;;;;;;12.87;3.70;;;21.10;91.70;;;;;;5052719;28;20222;-76
2022/02/26 09:09:48;;;;;;;18.53;4.90;;;21.20;92.00;;;;;;5053844;28;20187;-71
2022/02/26 09:12:15;;;;;;;17.13;4.10;;;21.20;92.90;;;;;;5051351;28;20238;-73
2022/02/26 09:14:43;;;;;;;17.13;3.40;;;21.00;93.70;;;;;;5053703;28;20211;-74
2022/02/26 09:17:11;;;;;;;7.23;2.20;;;20.80;93.80;;;;;;5053025;28;20622;-75
2022/02/26 09:19:39;;;;;;;12.10;2.47;;;20.60;93.60;;;;;;5052889;28;20229;-76
2022/02/26 09:22:07;;;;;;;9.53;2.50;;;20.50;93.80;;;;;;5053506;28;20172;-75
2022/02/26 09:24:34;;;;;;;9.57;2.00;;;20.40;94.00;;;;;;5053280;28;20192;-74
2022/02/26 09:27:02;;;;;;;13.00;2.17;;;20.30;94.30;;;;;;5050713;28;20184;-76
2022/02/26 09:29:30;;;;;;;9.53;2.40;;;20.20;94.40;;;;;;5052379;28;20721;-74
2022/02/26 09:31:57;;;;;;;13.03;2.20;;;20.20;94.70;;;;;;5051773;28;20223;-74
2022/02/26 09:34:25;;;;;;;8.70;2.17;;;20.20;95.00;;;;;;5052801;28;20306;-75
2022/02/26 09:36:53;;;;;;;7.23;1.80;;;20.20;95.10;;;;;;5052971;28;20277;-74
2022/02/26 09:39:21;;;;;;;13.80;2.30;;;20.20;95.10;;;;;;5052870;28;20542;-74
2022/02/26 09:41:50;;;;;;;10.03;2.10;;;20.20;95.00;;;;;;5051478;28;20182;-74
2022/02/26 09:44:19;;;;;;;12.47;2.23;;;20.10;95.10;;;;;;5052806;28;20172;-75
2022/02/26 09:46:46;;;;;;;10.80;1.80;;;20.10;95.40;;;;;;5052316;28;20226;-74
2022/02/26 09:49:13;;;;;;;8.80;2.33;;;20.00;95.20;;;;;;5050512;28;20227;-74
2022/02/26 09:51:43;;;;;;;12.30;2.30;;;20.00;95.30;;;;;;5052126;28;20198;-74
2022/02/26 09:54:11;;;;;;;14.97;2.40;;;19.90;95.30;;;;;;5052810;28;20195;-74
2022/02/26 09:56:39;;;;;;;11.07;3.10;;;19.90;95.40;;;;;;5051147;28;20184;-74
2022/02/26 09:59:06;;;;;;;9.43;2.17;;;19.80;95.40;;;;;;5052417;28;20629;-75
2022/02/26 10:01:33;;;;;;;13.80;2.73;;;19.80;95.20;;;;;;5051233;28;20183;-74
2022/02/26 10:04:09;;;;;;;10.40;2.50;;;19.80;95.20;;;;;;5052096;28;20184;-74
2022/02/26 10:06:36;;;;;;;13.27;2.27;;;19.70;95.10;;;;;;5051381;28;20275;-74
2022/02/26 10:09:13;;;;;;;9.27;2.20;;;19.70;95.20;;;;;;5049383;28;20191;-74
2022/02/26 10:11:40;;;;;;;16.10;2.20;;;19.70;95.40;;;;;;5052028;28;20251;-74
2022/02/26 10:14:16;;;;;;;8.00;2.30;;;19.70;95.40;;;;;;5052309;28;20291;-74
2022/02/26 10:16:59;;;;;;;10.40;2.53;;;19.80;95.50;;;;;;5052547;28;20614;-74
2022/02/26 10:19:31;;;;;;;9.50;2.17;;;19.80;95.70;;;;;;5052581;28;20184;-76
2022/02/26 10:22:05;;;;;;;9.07;2.20;;;19.80;95.60;;;;;;5052621;28;20245;-76
2022/02/26 10:24:34;;;;;;;11.60;2.47;;;19.80;95.60;;;;;;5052435;28;20625;-76
2022/02/26 10:27:06;;;;;;;12.67;6.63;;;19.80;95.50;;;;;;5049651;28;20191;-75
2022/02/26 10:29:39;;;;;;;10.03;2.60;;;19.80;95.60;;;;;;5049568;28;20601;-76
2022/02/26 10:32:08;;;;;;;15.40;3.70;;;19.80;95.80;;;;;;5050022;28;20674;-76
2022/02/26 10:34:41;;;;;;;14.13;2.37;;;19.80;95.60;;;;;;5050629;28;20176;-75
2022/02/26 10:37:14;;;;;;;9.57;2.73;;;19.80;95.50;;;;;;5046610;28;20721;-76
2022/02/26 10:39:44;;;;;;;9.63;2.20;;;19.80;95.60;;;;;;5050387;28;20206;-75
2022/02/26 10:42:21;;;;;;;6.73;2.13;;;19.80;95.70;;;;;;5050154;28;20547;-75
2022/02/26 10:45:09;;;;;;;9.03;2.23;;;19.80;95.60;;;;;;5050829;28;20172;-75
2022/02/26 10:47:38;;;;;;;11.67;2.57;;;19.80;95.60;;;;;;5051434;28;20740;-75
2022/02/26 10:50:20;;;;;;;10.93;2.37;;;19.80;95.70;;;;;;5050996;28;20536;-75
2022/02/26 10:53:16;;;;;;;9.17;2.43;;;19.80;95.50;;;;;;5051749;28;20218;-75
2022/02/26 10:55:57;;;;;;;5.57;2.07;;;19.80;95.60;;;;;;5050477;28;20188;-75
2022/02/26 10:58:28;;;;;;;9.63;2.60;;;19.80;95.70;;;;;;5051469;28;20175;-75
2022/02/26 11:01:07;;;;;;;10.90;2.67;;;19.80;95.70;;;;;;5050150;28;20539;-76
2022/02/26 11:03:36;;;;;;;7.17;2.40;;;19.80;95.70;;;;;;5045962;28;20176;-75
2022/02/26 11:06:05;;;;;;;7.43;2.60;;;19.80;95.70;;;;;;5050779;28;20186;-76
2022/02/26 11:08:32;;;;;;;9.53;2.50;;;19.80;95.80;;;;;;5051684;28;20293;-76
2022/02/26 11:11:02;;;;;;;7.40;2.07;;;19.80;95.80;;;;;;5050901;28;20176;-76
2022/02/26 11:13:30;;;;;;;11.63;3.00;;;19.80;95.70;;;;;;5048990;28;20233;-76
2022/02/26 11:15:59;;;;;;;8.37;2.50;;;19.80;95.70;;;;;;5050171;28;20598;-76
2022/02/26 11:18:41;;;;;;;9.13;2.43;;;19.80;95.60;;;;;;5049708;28;20176;-76
2022/02/26 11:21:14;;;;;;;7.23;2.27;;;19.80;95.70;;;;;;5050568;28;20190;-76
2022/02/26 11:23:45;;;;;;;9.83;2.43;;;19.80;95.80;;;;;;5048744;28;20210;-76
2022/02/26 11:26:14;;;;;;;12.63;2.70;;;19.80;95.80;;;;;;5046408;28;20203;-75
2022/02/26 11:28:49;;;;;;;7.63;2.47;;;19.80;96.00;;;;;;5049241;28;20652;-75
2022/02/26 11:31:32;;;;;;;10.80;3.63;;;19.80;95.70;;;;;;5051409;28;20179;-76
2022/02/26 11:34:00;;;;;;;5.77;2.20;;;19.70;95.70;;;;;;5052011;28;20196;-76
2022/02/26 11:36:49;;;;;;;6.97;2.87;;;19.70;95.80;;;;;;5055180;28;20242;-76
2022/02/26 11:39:29;;;;;;;9.37;2.70;;;19.80;95.80;;;;;;5052324;28;20184;-75
2022/02/26 11:42:29;;;;;;;10.40;2.90;;;19.80;95.90;;;;;;5055170;28;20179;-76
2022/02/26 11:45:05;;;;;;;7.90;2.80;;;19.80;95.90;;;;;;5042837;28;20192;-76
2022/02/26 11:47:38;;;;;;;9.93;2.80;;;19.80;95.90;;;;;;5053795;28;20306;-75
2022/02/26 11:50:14;;;;;;;10.73;3.87;;;19.80;96.00;;;;;;5055557;28;20202;-76
2022/02/26 11:52:53;;;;;;;10.10;3.33;;;19.80;96.00;;;;;;5054918;28;20214;-76
2022/02/26 11:55:29;;;;;;;12.53;2.77;;;19.80;96.00;;;;;;5049934;28;20533;-76
2022/02/26 11:58:07;;;;;;;8.50;2.97;;;19.80;96.10;;;;;;5053579;28;20191;-76
2022/02/26 12:00:44;;;;;;;5.87;2.73;;;19.80;96.00;;;;;;5045944;28;20266;-76
2022/02/26 12:03:34;;;;;;;10.37;2.80;;;19.80;96.10;;;;;;5050943;28;20676;-76
2022/02/26 12:06:13;;;;;;;8.33;2.73;;;19.80;96.10;;;;;;5052629;28;20180;-76
2022/02/26 12:08:55;;;;;;;10.87;3.17;;;19.80;96.10;;;;;;5052574;28;20179;-76
2022/02/26 12:11:22;;;;;;;10.10;2.70;;;19.80;96.10;;;;;;5050236;28;20178;-77
2022/02/26 12:13:54;;;;;;;14.10;2.97;;;19.80;96.10;;;;;;5054951;28;20250;-76
2022/02/26 12:16:21;;;;;;;10.80;3.10;;;19.80;96.10;;;;;;5054218;28;20246;-77
2022/02/26 12:18:58;;;;;;;10.37;3.10;;;19.80;96.20;;;;;;5054336;28;20175;-76
2022/02/26 12:21:32;;;;;;;5.57;3.07;;;19.90;96.20;;;;;;5053675;28;20228;-76
2022/02/26 12:24:08;;;;;;;9.60;3.27;;;19.90;96.30;;;;;;5054808;28;20206;-76
2022/02/26 12:27:08;;;;;;;10.73;3.13;;;19.90;96.20;;;;;;5053837;28;20197;-76
2022/02/26 12:29:44;;;;;;;7.80;2.73;;;19.90;96.30;;;;;;5052729;28;20688;-76
2022/02/26 12:32:15;;;;;;;14.40;3.17;;;19.90;96.30;;;;;;5054454;28;20631;-77
2022/02/26 12:35:04;;;;;;;9.03;3.57;;;19.90;96.30;;;;;;5052918;28;20192;-75
2022/02/26 12:37:34;;;;;;;11.37;3.47;;;19.90;96.30;;;;;;5054511;28;20186;-75
2022/02/26 12:40:04;;;;;;;10.37;3.40;;;19.90;96.30;;;;;;5051538;28;20668;-76
2022/02/26 12:42:37;;;;;;;12.60;3.57;;;19.90;96.30;;;;;;5052996;28;20180;-75
2022/02/26 12:45:07;;;;;;;9.10;3.27;;;19.80;96.30;;;;;;5051330;28;20604;-75
2022/02/26 12:47:35;;;;;;;13.90;4.03;;;19.80;96.30;;;;;;5052410;28;20224;-76
2022/02/26 12:50:05;;;;;;;10.67;3.80;;;19.80;96.30;;;;;;5051382;28;20188;-76
2022/02/26 12:52:35;;;;;;;14.10;3.53;;;19.80;96.30;;;;;;5054047;28;20281;-76
2022/02/26 12:55:11;;;;;;;9.83;3.77;;;19.80;96.40;;;;;;5053997;28;20183;-75
2022/02/26 12:57:44;;;;;;;9.27;3.43;;;19.80;96.40;;;;;;5053802;28;20183;-76